sensor_id;sensor_type;location;lat;lon;timestamp;pressure;altitude;pressure_sealevel;temperature;humidity
40285;BME280;25997;50.214;19.354;2024-01-15T00:01:42;95993.47;;;1.23;50.99
40285;BME280;25997;50.214;19.354;2024-01-15T00:04:44;95985.94;;;1.01;51.53
40285;BME280;25997;50.214;19.354;2024-01-15T00:07:48;95976.53;;;1.33;50.98
40285;BME280;25997;50.214;19.354;2024-01-15T00:10:51;95968.41;;;0.91;51.30
40285;BME280;25997;50.214;19.354;2024-01-15T00:13:53;95972.19;;;1.02;50.96
40285;BME280;25997;50.214;19.354;2024-01-15T00:16:56;95959.00;;;1.23;51.11
40285;BME280;25997;50.214;19.354;2024-01-15T00:19:58;95949.75;;;1.00;51.26
40285;BME280;25997;50.214;19.354;2024-01-15T00:23:02;95957.88;;;0.84;51.60
40285;BME280;25997;50.214;19.354;2024-01-15T00:26:05;95960.66;;;0.62;52.21
40285;BME280;25997;50.214;19.354;2024-01-15T00:29:07;95943.81;;;1.04;51.42
40285;BME280;25997;50.214;19.354;2024-01-15T00:32:10;95938.25;;;0.90;51.77
40285;BME280;25997;50.214;19.354;2024-01-15T00:35:12;95940.75;;;0.87;52.08
40285;BME280;25997;50.214;19.354;2024-01-15T00:38:16;95947.09;;;0.69;52.04
40285;BME280;25997;50.214;19.354;2024-01-15T00:41:19;95929.84;;;0.68;52.31
40285;BME280;25997;50.214;19.354;2024-01-15T00:44:21;95933.50;;;0.76;51.97
40285;BME280;25997;50.214;19.354;2024-01-15T00:47:24;95941.59;;;0.86;51.33
40285;BME280;25997;50.214;19.354;2024-01-15T00:50:26;95920.88;;;0.85;51.45
40285;BME280;25997;50.214;19.354;2024-01-15T00:53:30;95931.34;;;1.19;50.82
40285;BME280;25997;50.214;19.354;2024-01-15T00:56:33;95920.59;;;0.76;51.53
40285;BME280;25997;50.214;19.354;2024-01-15T00:59:35;95930.31;;;1.14;50.94
40285;BME280;25997;50.214;19.354;2024-01-15T01:02:38;95915.91;;;1.22;50.54
40285;BME280;25997;50.214;19.354;2024-01-15T01:05:41;95921.69;;;1.13;50.74
40285;BME280;25997;50.214;19.354;2024-01-15T01:08:45;95906.75;;;1.33;50.48
40285;BME280;25997;50.214;19.354;2024-01-15T01:11:48;95916.31;;;1.06;50.64
40285;BME280;25997;50.214;19.354;2024-01-15T01:14:50;95898.63;;;1.19;50.54
40285;BME280;25997;50.214;19.354;2024-01-15T01:17:53;95893.25;;;1.13;50.56
40285;BME280;25997;50.214;19.354;2024-01-15T01:20:55;95877.72;;;1.12;50.68
40285;BME280;25997;50.214;19.354;2024-01-15T01:23:59;95874.69;;;1.27;50.39
40285;BME280;25997;50.214;19.354;2024-01-15T01:27:02;95867.66;;;1.21;50.88
40285;BME280;25997;50.214;19.354;2024-01-15T01:30:05;95867.56;;;1.18;50.80
40285;BME280;25997;50.214;19.354;2024-01-15T01:33:08;95880.31;;;0.81;51.32
40285;BME280;25997;50.214;19.354;2024-01-15T01:36:11;95856.97;;;1.09;50.97
40285;BME280;25997;50.214;19.354;2024-01-15T01:39:14;95853.06;;;1.23;50.78
40285;BME280;25997;50.214;19.354;2024-01-15T01:42:17;95852.78;;;1.12;50.54
40285;BME280;25997;50.214;19.354;2024-01-15T01:45:19;95847.88;;;1.23;50.46
40285;BME280;25997;50.214;19.354;2024-01-15T01:48:22;95842.69;;;1.21;50.45
40285;BME280;25997;50.214;19.354;2024-01-15T01:51:26;95844.59;;;1.29;50.27
40285;BME280;25997;50.214;19.354;2024-01-15T01:54:31;95845.56;;;1.34;50.38
40285;BME280;25997;50.214;19.354;2024-01-15T01:57:35;95842.03;;;1.29;50.45
40285;BME280;25997;50.214;19.354;2024-01-15T02:00:37;95836.28;;;1.07;50.71
40285;BME280;25997;50.214;19.354;2024-01-15T02:03:40;95820.66;;;1.03;50.83
40285;BME280;25997;50.214;19.354;2024-01-15T02:06:43;95821.03;;;1.16;50.97
40285;BME280;25997;50.214;19.354;2024-01-15T02:09:47;95812.88;;;1.36;50.77
40285;BME280;25997;50.214;19.354;2024-01-15T02:12:51;95813.16;;;1.12;50.66
40285;BME280;25997;50.214;19.354;2024-01-15T02:15:54;95812.88;;;1.01;50.52
40285;BME280;25997;50.214;19.354;2024-01-15T02:18:56;95817.75;;;0.91;50.60
40285;BME280;25997;50.214;19.354;2024-01-15T02:21:58;95814.84;;;1.11;50.13
40285;BME280;25997;50.214;19.354;2024-01-15T02:25:03;95814.16;;;1.17;49.75
40285;BME280;25997;50.214;19.354;2024-01-15T02:28:06;95809.22;;;1.26;49.90
40285;BME280;25997;50.214;19.354;2024-01-15T02:31:10;95800.50;;;1.22;49.19
40285;BME280;25997;50.214;19.354;2024-01-15T02:34:12;95809.88;;;1.17;49.08
40285;BME280;25997;50.214;19.354;2024-01-15T02:37:15;95795.09;;;1.13;48.94
40285;BME280;25997;50.214;19.354;2024-01-15T02:40:18;95793.38;;;1.12;48.88
40285;BME280;25997;50.214;19.354;2024-01-15T02:43:21;95793.50;;;1.18;48.78
40285;BME280;25997;50.214;19.354;2024-01-15T02:46:23;95779.91;;;1.25;48.54
40285;BME280;25997;50.214;19.354;2024-01-15T02:49:26;95782.25;;;1.16;48.48
40285;BME280;25997;50.214;19.354;2024-01-15T02:52:28;95769.38;;;1.18;48.06
40285;BME280;25997;50.214;19.354;2024-01-15T02:55:32;95761.69;;;1.19;48.38
40285;BME280;25997;50.214;19.354;2024-01-15T02:58:35;95757.28;;;1.15;48.10
40285;BME280;25997;50.214;19.354;2024-01-15T03:01:37;95750.06;;;1.38;47.74
40285;BME280;25997;50.214;19.354;2024-01-15T03:04:43;95739.38;;;1.23;47.56
40285;BME280;25997;50.214;19.354;2024-01-15T03:07:45;95745.75;;;1.37;47.43
40285;BME280;25997;50.214;19.354;2024-01-15T03:10:50;95741.19;;;1.27;47.34
40285;BME280;25997;50.214;19.354;2024-01-15T03:13:52;95732.03;;;1.40;47.35
40285;BME280;25997;50.214;19.354;2024-01-15T03:16:55;95727.31;;;1.22;47.73
40285;BME280;25997;50.214;19.354;2024-01-15T03:19:57;95734.16;;;1.21;47.26
40285;BME280;25997;50.214;19.354;2024-01-15T03:23:00;95717.81;;;1.22;47.05
40285;BME280;25997;50.214;19.354;2024-01-15T03:26:04;95703.47;;;0.99;46.68
40285;BME280;25997;50.214;19.354;2024-01-15T03:29:07;95704.84;;;1.19;47.17
40285;BME280;25997;50.214;19.354;2024-01-15T03:32:10;95712.28;;;1.07;47.48
40285;BME280;25997;50.214;19.354;2024-01-15T03:35:12;95706.75;;;1.27;47.32
40285;BME280;25997;50.214;19.354;2024-01-15T03:38:15;95717.97;;;0.94;47.17
40285;BME280;25997;50.214;19.354;2024-01-15T03:41:19;95709.00;;;1.13;46.95
40285;BME280;25997;50.214;19.354;2024-01-15T03:44:21;95694.16;;;1.06;47.21
40285;BME280;25997;50.214;19.354;2024-01-15T03:47:24;95688.63;;;0.91;47.09
40285;BME280;25997;50.214;19.354;2024-01-15T03:50:27;95687.63;;;0.86;47.03
40285;BME280;25997;50.214;19.354;2024-01-15T03:53:29;95696.81;;;1.09;47.13
40285;BME280;25997;50.214;19.354;2024-01-15T03:56:33;95684.44;;;1.32;46.54
40285;BME280;25997;50.214;19.354;2024-01-15T03:59:36;95705.53;;;1.12;46.66
40285;BME280;25997;50.214;19.354;2024-01-15T04:02:38;95670.13;;;1.08;46.55
40285;BME280;25997;50.214;19.354;2024-01-15T04:05:41;95678.34;;;1.28;46.59
40285;BME280;25997;50.214;19.354;2024-01-15T04:08:43;95678.38;;;1.30;46.64
40285;BME280;25997;50.214;19.354;2024-01-15T04:11:47;95670.94;;;1.45;46.42
40285;BME280;25997;50.214;19.354;2024-01-15T04:14:49;95666.56;;;1.05;46.68
40285;BME280;25997;50.214;19.354;2024-01-15T04:17:52;95674.22;;;1.00;47.23
40285;BME280;25997;50.214;19.354;2024-01-15T04:20:54;95680.06;;;0.93;47.15
40285;BME280;25997;50.214;19.354;2024-01-15T04:23:57;95679.25;;;1.30;46.78
40285;BME280;25997;50.214;19.354;2024-01-15T04:27:01;95665.78;;;1.07;46.75
40285;BME280;25997;50.214;19.354;2024-01-15T04:30:04;95675.38;;;0.77;47.54
40285;BME280;25997;50.214;19.354;2024-01-15T04:33:07;95685.75;;;0.79;47.64
40285;BME280;25997;50.214;19.354;2024-01-15T04:36:09;95665.75;;;0.72;47.38
40285;BME280;25997;50.214;19.354;2024-01-15T04:39:12;95677.97;;;0.77;47.79
40285;BME280;25997;50.214;19.354;2024-01-15T04:42:16;95684.84;;;0.78;47.51
40285;BME280;25997;50.214;19.354;2024-01-15T04:45:18;95679.88;;;0.84;47.33
40285;BME280;25997;50.214;19.354;2024-01-15T04:48:23;95657.97;;;1.04;47.11
40285;BME280;25997;50.214;19.354;2024-01-15T04:51:26;95676.34;;;0.82;47.59
40285;BME280;25997;50.214;19.354;2024-01-15T04:54:28;95663.53;;;0.85;47.87
40285;BME280;25997;50.214;19.354;2024-01-15T04:57:32;95638.75;;;0.58;47.96
40285;BME280;25997;50.214;19.354;2024-01-15T05:00:34;95680.03;;;0.58;48.11
40285;BME280;25997;50.214;19.354;2024-01-15T05:03:37;95661.50;;;0.74;47.71
40285;BME280;25997;50.214;19.354;2024-01-15T05:06:40;95653.63;;;0.69;47.95
40285;BME280;25997;50.214;19.354;2024-01-15T05:09:42;95656.97;;;0.64;48.33
40285;BME280;25997;50.214;19.354;2024-01-15T05:12:46;95666.22;;;0.90;47.88
40285;BME280;25997;50.214;19.354;2024-01-15T05:15:49;95672.13;;;0.84;48.11
40285;BME280;25997;50.214;19.354;2024-01-15T05:18:51;95654.72;;;0.77;48.08
40285;BME280;25997;50.214;19.354;2024-01-15T05:21:53;95647.47;;;0.98;47.59
40285;BME280;25997;50.214;19.354;2024-01-15T05:24:56;95643.19;;;0.63;48.22
40285;BME280;25997;50.214;19.354;2024-01-15T05:28:01;95637.41;;;0.73;48.10
40285;BME280;25997;50.214;19.354;2024-01-15T05:31:03;95650.81;;;0.93;47.94
40285;BME280;25997;50.214;19.354;2024-01-15T05:34:06;95654.56;;;0.71;48.28
40285;BME280;25997;50.214;19.354;2024-01-15T05:37:08;95640.72;;;1.03;47.90
40285;BME280;25997;50.214;19.354;2024-01-15T05:40:11;95652.41;;;0.88;48.01
40285;BME280;25997;50.214;19.354;2024-01-15T05:43:16;95630.50;;;0.39;48.72
40285;BME280;25997;50.214;19.354;2024-01-15T05:46:18;95670.31;;;0.47;48.94
40285;BME280;25997;50.214;19.354;2024-01-15T05:49:21;95639.72;;;0.63;48.42
40285;BME280;25997;50.214;19.354;2024-01-15T05:52:23;95636.44;;;0.68;48.50
40285;BME280;25997;50.214;19.354;2024-01-15T05:55:26;95625.22;;;0.68;48.56
40285;BME280;25997;50.214;19.354;2024-01-15T05:58:29;95651.72;;;0.61;48.47
40285;BME280;25997;50.214;19.354;2024-01-15T06:01:32;95635.47;;;0.65;48.52
40285;BME280;25997;50.214;19.354;2024-01-15T06:04:34;95642.41;;;0.67;48.29
40285;BME280;25997;50.214;19.354;2024-01-15T06:07:37;95649.56;;;0.77;48.17
40285;BME280;25997;50.214;19.354;2024-01-15T06:10:39;95647.16;;;0.85;48.25
40285;BME280;25997;50.214;19.354;2024-01-15T06:13:43;95641.53;;;1.02;47.82
40285;BME280;25997;50.214;19.354;2024-01-15T06:16:47;95652.38;;;1.23;47.32
40285;BME280;25997;50.214;19.354;2024-01-15T06:19:50;95646.25;;;1.20;47.24
40285;BME280;25997;50.214;19.354;2024-01-15T06:22:52;95654.47;;;1.02;47.54
40285;BME280;25997;50.214;19.354;2024-01-15T06:25:55;95641.31;;;0.92;47.96
40285;BME280;25997;50.214;19.354;2024-01-15T06:28:58;95640.56;;;0.62;48.09
40285;BME280;25997;50.214;19.354;2024-01-15T06:32:01;95699.88;;;0.60;48.22
40285;BME280;25997;50.214;19.354;2024-01-15T06:35:05;95649.03;;;0.92;47.86
40285;BME280;25997;50.214;19.354;2024-01-15T06:38:07;95653.28;;;0.88;47.91
40285;BME280;25997;50.214;19.354;2024-01-15T06:41:10;95661.91;;;0.89;47.44
40285;BME280;25997;50.214;19.354;2024-01-15T06:44:14;95656.78;;;0.90;47.48
40285;BME280;25997;50.214;19.354;2024-01-15T06:47:16;95664.50;;;0.90;47.76
40285;BME280;25997;50.214;19.354;2024-01-15T06:50:19;95674.47;;;0.75;47.69
40285;BME280;25997;50.214;19.354;2024-01-15T06:53:21;95665.09;;;0.79;47.81
40285;BME280;25997;50.214;19.354;2024-01-15T06:56:24;95676.16;;;0.73;47.79
40285;BME280;25997;50.214;19.354;2024-01-15T06:59:28;95680.78;;;0.53;48.17
40285;BME280;25997;50.214;19.354;2024-01-15T07:02:30;95687.00;;;0.96;47.57
40285;BME280;25997;50.214;19.354;2024-01-15T07:05:33;95674.88;;;0.92;47.69
40285;BME280;25997;50.214;19.354;2024-01-15T07:08:35;95677.09;;;0.78;48.05
40285;BME280;25997;50.214;19.354;2024-01-15T07:11:38;95684.59;;;0.68;48.19
40285;BME280;25997;50.214;19.354;2024-01-15T07:14:42;95685.97;;;0.88;47.86
40285;BME280;25997;50.214;19.354;2024-01-15T07:17:44;95684.81;;;0.77;47.99
40285;BME280;25997;50.214;19.354;2024-01-15T07:20:46;95685.69;;;0.44;48.67
40285;BME280;25997;50.214;19.354;2024-01-15T07:23:49;95697.63;;;0.72;48.12
40285;BME280;25997;50.214;19.354;2024-01-15T07:26:52;95712.06;;;0.64;48.20
40285;BME280;25997;50.214;19.354;2024-01-15T07:29:55;95698.84;;;0.53;48.40
40285;BME280;25997;50.214;19.354;2024-01-15T07:32:58;95707.44;;;0.87;47.67
40285;BME280;25997;50.214;19.354;2024-01-15T07:36:00;95705.91;;;0.61;48.08
40285;BME280;25997;50.214;19.354;2024-01-15T07:39:03;95716.69;;;0.77;48.01
40285;BME280;25997;50.214;19.354;2024-01-15T07:42:06;95724.03;;;0.95;47.66
40285;BME280;25997;50.214;19.354;2024-01-15T07:45:11;95723.06;;;0.59;47.73
40285;BME280;25997;50.214;19.354;2024-01-15T07:48:13;95726.28;;;0.83;47.48
40285;BME280;25997;50.214;19.354;2024-01-15T07:51:16;95719.75;;;0.95;47.26
40285;BME280;25997;50.214;19.354;2024-01-15T07:54:18;95728.75;;;1.11;47.00
40285;BME280;25997;50.214;19.354;2024-01-15T07:57:21;95721.34;;;1.26;46.65
40285;BME280;25997;50.214;19.354;2024-01-15T08:00:25;95719.25;;;1.11;46.66
40285;BME280;25997;50.214;19.354;2024-01-15T08:03:27;95721.28;;;0.56;48.05
40285;BME280;25997;50.214;19.354;2024-01-15T08:06:30;95736.78;;;0.89;47.37
40285;BME280;25997;50.214;19.354;2024-01-15T08:09:33;95713.25;;;0.78;47.54
40285;BME280;25997;50.214;19.354;2024-01-15T08:12:35;95736.84;;;0.59;47.77
40285;BME280;25997;50.214;19.354;2024-01-15T08:15:40;95748.34;;;0.70;47.79
40285;BME280;25997;50.214;19.354;2024-01-15T08:18:42;95749.38;;;0.77;47.29
40285;BME280;25997;50.214;19.354;2024-01-15T08:21:46;95749.53;;;0.83;47.28
40285;BME280;25997;50.214;19.354;2024-01-15T08:24:48;95759.31;;;0.62;47.69
40285;BME280;25997;50.214;19.354;2024-01-15T08:27:51;95742.00;;;0.58;47.96
40285;BME280;25997;50.214;19.354;2024-01-15T08:30:55;95748.19;;;0.97;47.17
40285;BME280;25997;50.214;19.354;2024-01-15T08:33:57;95759.34;;;0.63;47.43
40285;BME280;25997;50.214;19.354;2024-01-15T08:37:00;95746.13;;;0.51;47.97
40285;BME280;25997;50.214;19.354;2024-01-15T08:40:06;95749.94;;;0.35;48.55
40285;BME280;25997;50.214;19.354;2024-01-15T08:43:08;95734.50;;;1.01;47.72
40285;BME280;25997;50.214;19.354;2024-01-15T08:46:12;95747.31;;;0.98;47.83
40285;BME280;25997;50.214;19.354;2024-01-15T08:49:15;95765.81;;;1.13;47.42
40285;BME280;25997;50.214;19.354;2024-01-15T08:52:18;95746.34;;;1.27;47.28
40285;BME280;25997;50.214;19.354;2024-01-15T08:55:21;95765.50;;;1.01;47.92
40285;BME280;25997;50.214;19.354;2024-01-15T08:58:23;95743.75;;;1.27;48.47
40285;BME280;25997;50.214;19.354;2024-01-15T09:01:27;95760.25;;;0.65;51.19
40285;BME280;25997;50.214;19.354;2024-01-15T09:04:30;95773.84;;;0.91;49.80
40285;BME280;25997;50.214;19.354;2024-01-15T09:07:33;95764.56;;;0.97;49.40
40285;BME280;25997;50.214;19.354;2024-01-15T09:10:35;95778.53;;;0.73;50.27
40285;BME280;25997;50.214;19.354;2024-01-15T09:13:38;95771.31;;;0.31;51.49
40285;BME280;25997;50.214;19.354;2024-01-15T09:16:42;95782.34;;;0.87;50.67
40285;BME280;25997;50.214;19.354;2024-01-15T09:19:44;95776.72;;;1.01;50.18
40285;BME280;25997;50.214;19.354;2024-01-15T09:22:47;95764.22;;;0.85;51.14
40285;BME280;25997;50.214;19.354;2024-01-15T09:25:49;95773.75;;;0.86;50.23
40285;BME280;25997;50.214;19.354;2024-01-15T09:28:53;95787.13;;;0.42;50.79
40285;BME280;25997;50.214;19.354;2024-01-15T09:31:58;95760.16;;;0.32;50.83
40285;BME280;25997;50.214;19.354;2024-01-15T09:35:00;95757.44;;;0.26;51.49
40285;BME280;25997;50.214;19.354;2024-01-15T09:38:04;95764.41;;;0.60;50.94
40285;BME280;25997;50.214;19.354;2024-01-15T09:41:06;95769.72;;;0.35;50.51
40285;BME280;25997;50.214;19.354;2024-01-15T09:44:10;95751.28;;;0.84;49.56
40285;BME280;25997;50.214;19.354;2024-01-15T09:47:16;95753.94;;;0.87;48.92
40285;BME280;25997;50.214;19.354;2024-01-15T09:50:19;95758.56;;;0.67;49.07
40285;BME280;25997;50.214;19.354;2024-01-15T09:53:22;95751.22;;;0.49;48.93
40285;BME280;25997;50.214;19.354;2024-01-15T09:56:26;95726.25;;;0.48;49.08
40285;BME280;25997;50.214;19.354;2024-01-15T09:59:30;95754.88;;;0.28;49.08
40285;BME280;25997;50.214;19.354;2024-01-15T10:02:35;95754.13;;;0.32;48.97
40285;BME280;25997;50.214;19.354;2024-01-15T10:05:38;95765.81;;;0.49;48.45
40285;BME280;25997;50.214;19.354;2024-01-15T10:08:40;95752.16;;;0.84;47.83
40285;BME280;25997;50.214;19.354;2024-01-15T10:11:43;95759.50;;;1.02;47.00
40285;BME280;25997;50.214;19.354;2024-01-15T10:14:46;95746.03;;;1.49;46.22
40285;BME280;25997;50.214;19.354;2024-01-15T10:17:52;95745.56;;;1.30;46.45
40285;BME280;25997;50.214;19.354;2024-01-15T10:20:54;95754.97;;;1.28;46.20
40285;BME280;25997;50.214;19.354;2024-01-15T10:24:00;95747.66;;;1.46;46.07
40285;BME280;25997;50.214;19.354;2024-01-15T10:27:07;95752.75;;;1.43;45.37
40285;BME280;25997;50.214;19.354;2024-01-15T10:30:10;95746.59;;;2.12;44.63
40285;BME280;25997;50.214;19.354;2024-01-15T10:33:21;95730.34;;;2.19;44.20
40285;BME280;25997;50.214;19.354;2024-01-15T10:36:26;95726.47;;;1.99;44.86
40285;BME280;25997;50.214;19.354;2024-01-15T10:39:29;95738.53;;;2.00;44.55
40285;BME280;25997;50.214;19.354;2024-01-15T10:42:32;95739.94;;;1.84;44.68
40285;BME280;25997;50.214;19.354;2024-01-15T10:45:35;95730.34;;;1.79;44.36
40285;BME280;25997;50.214;19.354;2024-01-15T10:48:39;95738.31;;;1.51;44.64
40285;BME280;25997;50.214;19.354;2024-01-15T10:51:42;95753.59;;;1.77;44.65
40285;BME280;25997;50.214;19.354;2024-01-15T10:54:45;95770.72;;;1.37;44.73
40285;BME280;25997;50.214;19.354;2024-01-15T10:57:49;95732.94;;;1.42;44.94
40285;BME280;25997;50.214;19.354;2024-01-15T11:00:52;95729.31;;;1.71;44.96
40285;BME280;25997;50.214;19.354;2024-01-15T11:03:56;95729.56;;;1.83;44.58
40285;BME280;25997;50.214;19.354;2024-01-15T11:07:00;95722.69;;;1.85;44.59
40285;BME280;25997;50.214;19.354;2024-01-15T11:10:04;95741.41;;;1.73;44.67
40285;BME280;25997;50.214;19.354;2024-01-15T11:13:08;95740.22;;;1.98;44.04
40285;BME280;25997;50.214;19.354;2024-01-15T11:16:11;95728.03;;;1.54;44.75
40285;BME280;25997;50.214;19.354;2024-01-15T11:19:18;95727.47;;;1.67;44.64
40285;BME280;25997;50.214;19.354;2024-01-15T11:22:48;95727.56;;;0.98;45.15
40285;BME280;25997;50.214;19.354;2024-01-15T11:25:51;95710.47;;;1.03;45.07
40285;BME280;25997;50.214;19.354;2024-01-15T11:28:54;95721.84;;;0.77;45.54
40285;BME280;25997;50.214;19.354;2024-01-15T11:31:58;95731.38;;;0.80;45.53
40285;BME280;25997;50.214;19.354;2024-01-15T11:35:03;95726.81;;;0.70;45.69
40285;BME280;25997;50.214;19.354;2024-01-15T11:38:09;95690.94;;;1.16;45.06
40285;BME280;25997;50.214;19.354;2024-01-15T11:41:13;95715.31;;;1.25;45.28
40285;BME280;25997;50.214;19.354;2024-01-15T11:44:17;95717.34;;;1.03;45.25
40285;BME280;25997;50.214;19.354;2024-01-15T11:47:42;95714.56;;;0.95;45.20
40285;BME280;25997;50.214;19.354;2024-01-15T11:50:55;95718.03;;;0.63;45.85
40285;BME280;25997;50.214;19.354;2024-01-15T11:54:01;95716.94;;;0.86;45.35
40285;BME280;25997;50.214;19.354;2024-01-15T11:57:10;95730.19;;;0.67;45.78
40285;BME280;25997;50.214;19.354;2024-01-15T12:00:16;95699.56;;;1.15;45.40
40285;BME280;25997;50.214;19.354;2024-01-15T12:03:20;95717.09;;;0.94;45.72
40285;BME280;25997;50.214;19.354;2024-01-15T12:06:24;95737.97;;;1.01;45.42
40285;BME280;25997;50.214;19.354;2024-01-15T12:09:27;95712.63;;;0.87;45.71
40285;BME280;25997;50.214;19.354;2024-01-15T12:12:49;95723.81;;;0.87;45.47
40285;BME280;25997;50.214;19.354;2024-01-15T12:15:56;95700.28;;;1.09;45.48
40285;BME280;25997;50.214;19.354;2024-01-15T12:18:58;95700.72;;;0.93;45.40
40285;BME280;25997;50.214;19.354;2024-01-15T12:22:03;95713.03;;;1.03;45.15
40285;BME280;25997;50.214;19.354;2024-01-15T12:25:06;95738.00;;;1.03;45.57
40285;BME280;25997;50.214;19.354;2024-01-15T12:28:08;95709.91;;;0.82;45.74
40285;BME280;25997;50.214;19.354;2024-01-15T12:31:11;95741.56;;;1.08;45.10
40285;BME280;25997;50.214;19.354;2024-01-15T12:34:13;95712.31;;;1.09;45.06
40285;BME280;25997;50.214;19.354;2024-01-15T12:37:17;95710.66;;;1.11;45.05
40285;BME280;25997;50.214;19.354;2024-01-15T12:40:20;95715.81;;;0.77;45.60
40285;BME280;25997;50.214;19.354;2024-01-15T12:43:23;95725.09;;;1.03;45.35
40285;BME280;25997;50.214;19.354;2024-01-15T12:46:26;95712.25;;;1.06;45.36
40285;BME280;25997;50.214;19.354;2024-01-15T12:49:28;95721.56;;;0.99;45.21
40285;BME280;25997;50.214;19.354;2024-01-15T12:52:32;95717.66;;;1.16;44.96
40285;BME280;25997;50.214;19.354;2024-01-15T12:55:35;95719.66;;;1.27;44.74
40285;BME280;25997;50.214;19.354;2024-01-15T12:58:37;95723.84;;;1.23;44.99
40285;BME280;25997;50.214;19.354;2024-01-15T13:01:40;95735.16;;;1.27;44.74
40285;BME280;25997;50.214;19.354;2024-01-15T13:04:42;95739.75;;;0.71;46.21
40285;BME280;25997;50.214;19.354;2024-01-15T13:07:46;95733.63;;;0.68;46.20
40285;BME280;25997;50.214;19.354;2024-01-15T13:10:49;95720.31;;;0.85;46.06
40285;BME280;25997;50.214;19.354;2024-01-15T13:13:53;95741.00;;;0.85;46.19
40285;BME280;25997;50.214;19.354;2024-01-15T13:16:55;95731.47;;;1.17;45.75
40285;BME280;25997;50.214;19.354;2024-01-15T13:19:59;95725.50;;;1.19;45.60
40285;BME280;25997;50.214;19.354;2024-01-15T13:23:03;95745.38;;;0.89;45.95
40285;BME280;25997;50.214;19.354;2024-01-15T13:26:06;95717.78;;;1.21;45.64
40285;BME280;25997;50.214;19.354;2024-01-15T13:29:09;95741.88;;;0.86;46.45
40285;BME280;25997;50.214;19.354;2024-01-15T13:32:13;95719.03;;;1.02;46.50
40285;BME280;25997;50.214;19.354;2024-01-15T13:35:17;95722.75;;;0.79;46.63
40285;BME280;25997;50.214;19.354;2024-01-15T13:38:21;95702.53;;;0.63;46.96
40285;BME280;25997;50.214;19.354;2024-01-15T13:41:25;95721.84;;;1.11;46.53
40285;BME280;25997;50.214;19.354;2024-01-15T13:44:28;95688.44;;;1.17;46.25
40285;BME280;25997;50.214;19.354;2024-01-15T13:47:30;95704.06;;;0.89;46.83
40285;BME280;25997;50.214;19.354;2024-01-15T13:50:33;95705.53;;;1.12;46.22
40285;BME280;25997;50.214;19.354;2024-01-15T13:53:38;95691.44;;;0.66;47.04
40285;BME280;25997;50.214;19.354;2024-01-15T13:56:40;95696.06;;;0.79;46.60
40285;BME280;25997;50.214;19.354;2024-01-15T13:59:44;95701.72;;;0.64;46.96
40285;BME280;25997;50.214;19.354;2024-01-15T14:02:46;95699.56;;;1.15;45.99
40285;BME280;25997;50.214;19.354;2024-01-15T14:05:49;95689.81;;;1.05;46.27
40285;BME280;25997;50.214;19.354;2024-01-15T14:08:53;95708.09;;;1.11;45.95
40285;BME280;25997;50.214;19.354;2024-01-15T14:11:56;95695.41;;;1.21;45.92
40285;BME280;25997;50.214;19.354;2024-01-15T14:14:58;95702.59;;;0.99;45.92
40285;BME280;25997;50.214;19.354;2024-01-15T14:18:01;95700.84;;;0.98;45.97
40285;BME280;25997;50.214;19.354;2024-01-15T14:21:03;95717.44;;;0.73;46.23
40285;BME280;25997;50.214;19.354;2024-01-15T14:24:08;95707.38;;;0.84;45.89
40285;BME280;25997;50.214;19.354;2024-01-15T14:27:10;95713.19;;;1.09;46.06
40285;BME280;25997;50.214;19.354;2024-01-15T14:30:13;95711.63;;;1.52;44.95
40285;BME280;25997;50.214;19.354;2024-01-15T14:33:17;95718.78;;;1.26;45.41
40285;BME280;25997;50.214;19.354;2024-01-15T14:36:19;95714.81;;;1.04;45.89
40285;BME280;25997;50.214;19.354;2024-01-15T14:39:23;95730.66;;;0.85;45.93
40285;BME280;25997;50.214;19.354;2024-01-15T14:42:26;95722.59;;;1.06;45.86
40285;BME280;25997;50.214;19.354;2024-01-15T14:45:28;95714.97;;;1.12;45.41
40285;BME280;25997;50.214;19.354;2024-01-15T14:48:31;95725.31;;;1.12;45.11
40285;BME280;25997;50.214;19.354;2024-01-15T14:51:33;95721.38;;;0.29;46.34
40285;BME280;25997;50.214;19.354;2024-01-15T14:54:37;95724.63;;;0.52;45.82
40285;BME280;25997;50.214;19.354;2024-01-15T14:57:40;95720.25;;;0.82;45.26
40285;BME280;25997;50.214;19.354;2024-01-15T15:00:42;95718.44;;;1.12;44.84
40285;BME280;25997;50.214;19.354;2024-01-15T15:03:46;95732.19;;;0.77;45.21
40285;BME280;25997;50.214;19.354;2024-01-15T15:06:48;95746.56;;;0.69;45.26
40285;BME280;25997;50.214;19.354;2024-01-15T15:09:53;95715.72;;;1.06;44.99
40285;BME280;25997;50.214;19.354;2024-01-15T15:12:55;95732.38;;;1.19;44.49
40285;BME280;25997;50.214;19.354;2024-01-15T15:15:58;95726.75;;;1.01;44.71
40285;BME280;25997;50.214;19.354;2024-01-15T15:19:01;95745.56;;;0.95;44.93
40285;BME280;25997;50.214;19.354;2024-01-15T15:22:03;95739.94;;;0.77;44.99
40285;BME280;25997;50.214;19.354;2024-01-15T15:25:08;95730.38;;;1.09;45.03
40285;BME280;25997;50.214;19.354;2024-01-15T15:28:11;95723.13;;;0.93;44.99
40285;BME280;25997;50.214;19.354;2024-01-15T15:31:15;95731.28;;;1.09;44.63
40285;BME280;25997;50.214;19.354;2024-01-15T15:34:18;95740.09;;;1.17;44.78
40285;BME280;25997;50.214;19.354;2024-01-15T15:37:21;95740.81;;;1.12;44.76
40285;BME280;25997;50.214;19.354;2024-01-15T15:40:25;95766.13;;;0.92;45.36
40285;BME280;25997;50.214;19.354;2024-01-15T15:43:27;95752.91;;;1.13;44.75
40285;BME280;25997;50.214;19.354;2024-01-15T15:46:30;95747.31;;;0.96;44.88
40285;BME280;25997;50.214;19.354;2024-01-15T15:49:33;95746.13;;;1.18;44.54
40285;BME280;25997;50.214;19.354;2024-01-15T15:52:35;95760.22;;;0.96;44.58
40285;BME280;25997;50.214;19.354;2024-01-15T15:55:39;95748.69;;;1.16;44.52
40285;BME280;25997;50.214;19.354;2024-01-15T15:58:42;95751.41;;;1.22;44.65
40285;BME280;25997;50.214;19.354;2024-01-15T16:01:45;95739.13;;;1.14;44.72
40285;BME280;25997;50.214;19.354;2024-01-15T16:04:48;95755.09;;;1.32;44.68
40285;BME280;25997;50.214;19.354;2024-01-15T16:07:50;95758.59;;;1.36;44.47
40285;BME280;25997;50.214;19.354;2024-01-15T16:10:54;95770.00;;;1.08;44.83